• Join FlightAware (Why Join?)
  • Login
  • US Flag 
11:51PM EDT


 

Airport Tracker/Info


-or-


 

Live Flight TrackerFlight Track Log ✈ RPA3247 ✈ 29-Apr-2013 ✈ KDCA - KMSY

Flight Track Log - Related Links

Times and Time Zones

All times are in EDT time to prevent confusion due to time zone crossing. See the RPA3247 flight status page for this flight to view local times or setup timezone preferences in your user account.

Time Position Orientation Groundspeed Altitude Reporting Facility
EDT Latitude Longitude Course Direction KTS MPH feet Rate Location/Type
08:02PM 38.8167 -77.0333 233° Southwest 151 174 1,900  Level Potomac TRACON
08:04PM 38.6777 -77.3598 234° Southwest  Level FlightAware Approximate
08:04PM 38.7000 -77.0667 193° South 276 318 5,000  Level Potomac TRACON
08:05PM 38.6165 -77.4672 247° West  Level FlightAware Approximate
08:05PM 38.7333 -77.1667 293° West 288 331 6,100  Level Potomac TRACON
08:06PM 38.5729 -77.5876 237° Southwest  Level FlightAware Approximate
08:06PM 38.7167 -77.2667 258° West 283 326 9,700  Level Potomac TRACON
08:07PM 38.5126 -77.6957 233° Southwest  Level FlightAware Approximate
08:08PM 38.6236 -77.4731 240° Southwest 332 382 14,500  Level Washington Center
08:09PM 38.5781 -77.5728 240° Southwest 343 395 16,600 2,160 Climbing Washington Center
08:10PM 38.5261 -77.6856 240° Southwest 358 412 18,900 2,160 Climbing Washington Center
08:11PM 38.4719 -77.8008 239° Southwest 370 426 21,000 1,920 Climbing Washington Center
08:12PM 38.4094 -77.9156 235° Southwest 390 449 22,800 1,740 Climbing Washington Center
08:13PM 38.3444 -78.0378 236° Southwest 402 463 24,600 1,680 Climbing Washington Center
08:14PM 38.2814 -78.1600 237° Southwest 415 478 26,300 1,500 Climbing Washington Center
08:15PM 38.2161 -78.2872 237° Southwest 420 483 27,600 1,260 Climbing Washington Center
08:16PM 38.1486 -78.4117 235° Southwest 427 491 28,800 1,440 Climbing Washington Center
08:17PM 38.0972 -78.5444 244° Southwest 439 505 30,500 1,380 Climbing Washington Center
08:18PM 38.0522 -78.6797 247° West 426 490 31,700 720 Climbing Washington Center
08:19PM 38.0047 -78.8147 246° West 421 484 32,000 600 Climbing Washington Center
08:20PM 37.9550 -78.9603 247° West 415 478 33,000 780 Climbing Washington Center
08:21PM 37.9094 -79.0922 246° West 415 478 33,600 960 Climbing Washington Center
08:22PM 37.8517 -79.2133 239° Southwest 415 478 35,000 1,080 Climbing Washington Center
08:23PM 37.7983 -79.3186 237° Southwest 410 472 35,900 480 Climbing Washington Center
08:24PM 37.7403 -79.4392 239° Southwest 410 472 36,000  Climbing Washington Center
08:25PM 37.6739 -79.5617 236° Southwest 417 480 36,000  Level Washington Center
08:26PM 37.6064 -79.6997 238° Southwest 423 487 36,000  Level Washington Center
08:27PM 37.5417 -79.8244 237° Southwest 423 487 36,000  Level Washington Center
08:28PM 37.4831 -79.9442 238° Southwest 434 499 36,000  Level Washington Center
08:29PM 37.4200 -80.0689 238° Southwest 434 499 36,000  Level Washington Center
08:30PM 37.3569 -80.1931 237° Southwest 429 494 36,000  Level Washington Center
08:30PM 37.3339 -80.2333 234° Southwest 424 488 36,000  Level Atlanta Center
08:31PM 37.2689 -80.3592 237° Southwest 419 482 36,000  Level Atlanta Center
08:32PM 37.2058 -80.4844 238° Southwest 424 488 36,000  Level Atlanta Center
08:33PM 37.1464 -80.5939 236° Southwest 429 494 36,000  Level Atlanta Center
08:34PM 37.0833 -80.7217 238° Southwest 429 494 36,000  Level Atlanta Center
08:35PM 37.0325 -80.8564 245° Southwest 429 494 36,000  Level Atlanta Center
08:36PM 36.9817 -80.9908 245° Southwest 429 494 36,000  Level Atlanta Center
08:37PM 36.9100 -81.1261 237° Southwest 429 494 36,000  Level Atlanta Center
08:38PM 36.8442 -81.2531 237° Southwest 440 506 36,000  Level Atlanta Center
08:39PM 36.7781 -81.3772 236° Southwest 440 506 36,000  Level Atlanta Center
08:40PM 36.7181 -81.4983 238° Southwest 440 506 36,000  Level Atlanta Center
08:41PM 36.6558 -81.6142 236° Southwest 445 512 36,000  Level Atlanta Center
08:42PM 36.5894 -81.7403 237° Southwest 445 512 36,000  Level Atlanta Center
08:43PM 36.5208 -81.8661 236° Southwest 445 512 36,000  Level Atlanta Center
08:44PM 36.4542 -81.9894 236° Southwest 445 512 36,000  Level Atlanta Center
08:45PM 36.3853 -82.1147 236° Southwest 445 512 36,000  Level Atlanta Center
08:46PM 36.3100 -82.2506 236° Southwest 445 512 36,000  Level Atlanta Center
08:47PM 36.2431 -82.3783 237° Southwest 445 512 36,000  Level Atlanta Center
08:48PM 36.1758 -82.5006 236° Southwest 445 512 36,000  Level Atlanta Center
08:49PM 36.1064 -82.6278 236° Southwest 445 512 36,000  Level Atlanta Center
08:50PM 36.0369 -82.7522 235° Southwest 445 512 36,000  Level Atlanta Center
08:51PM 35.9694 -82.8764 236° Southwest 445 512 36,000  Level Atlanta Center
08:52PM 35.8994 -83.0006 235° Southwest 445 512 36,000  Level Atlanta Center
08:53PM 35.8317 -83.1244 236° Southwest 445 512 36,000  Level Atlanta Center
08:54PM 35.7658 -83.2481 237° Southwest 445 512 36,000  Level Atlanta Center
08:55PM 35.6956 -83.3714 235° Southwest 445 512 36,000  Level Atlanta Center
08:56PM 35.6336 -83.4817 235° Southwest 445 512 36,000  Level Atlanta Center
08:57PM 35.5631 -83.6100 236° Southwest 445 512 36,000  Level Atlanta Center
08:58PM 35.4925 -83.7328 235° Southwest 445 512 36,000  Level Atlanta Center
08:59PM 35.4219 -83.8578 235° Southwest 445 512 36,000  Level Atlanta Center
09:00PM 35.3511 -83.9803 235° Southwest 445 512 36,000  Level Atlanta Center
09:01PM 35.2800 -84.1025 235° Southwest 445 512 36,000  Level Atlanta Center
09:02PM 35.2069 -84.2269 234° Southwest 445 512 36,000  Level Atlanta Center
09:03PM 35.1358 -84.3486 234° Southwest 445 512 36,000  Level Atlanta Center
09:04PM 35.0644 -84.4728 235° Southwest 445 512 36,000  Level Atlanta Center
09:05PM 34.9931 -84.5967 235° Southwest 445 512 36,000  Level Atlanta Center
09:06PM 34.9194 -84.7203 234° Southwest 445 512 36,000  Level Atlanta Center
09:07PM 34.8456 -84.8436 234° Southwest 445 512 36,000  Level Atlanta Center
09:08PM 34.7739 -84.9669 235° Southwest 445 512 36,000  Level Atlanta Center
09:09PM 34.7019 -85.0897 235° Southwest 445 512 36,000  Level Atlanta Center
09:10PM 34.6297 -85.2100 234° Southwest 445 512 36,000  Level Atlanta Center
09:11PM 34.5575 -85.3328 234° Southwest 445 512 36,000  Level Atlanta Center
09:12PM 34.4833 -85.4550 234° Southwest 445 512 36,000  Level Atlanta Center
09:13PM 34.4108 -85.5772 234° Southwest 445 512 36,000  Level Atlanta Center
09:14PM 34.3339 -85.7092 235° Southwest 445 512 36,000  Level Atlanta Center
09:15PM 34.2592 -85.8258 232° Southwest 445 512 36,000  Level Atlanta Center
09:16PM 34.1844 -85.9472 233° Southwest 445 512 36,000  Level Atlanta Center
09:17PM 34.1094 -86.0661 233° Southwest 451 519 36,000  Level Atlanta Center
09:18PM 34.0364 -86.1872 234° Southwest 451 519 36,000  Level Atlanta Center
09:19PM 33.9633 -86.3106 234° Southwest 451 519 36,000  Level Atlanta Center
09:20PM 33.8881 -86.4261 232° Southwest 451 519 36,000  Level Atlanta Center
09:21PM 33.8147 -86.5467 234° Southwest 451 519 36,000  Level Atlanta Center
09:22PM 33.7433 -86.6644 234° Southwest 445 512 36,000  Level Atlanta Center
09:23PM 33.6697 -86.7844 234° Southwest 445 512 36,000  Level Atlanta Center
09:24PM 33.5961 -86.8992 232° Southwest 445 512 36,000  Level Atlanta Center
09:25PM 33.5244 -87.0167 234° Southwest 445 512 36,000  Level Atlanta Center
09:26PM 33.4486 -87.1333 232° Southwest 445 512 36,000  Level Atlanta Center
09:27PM 33.3767 -87.2503 234° Southwest 445 512 36,000  Level Atlanta Center
09:28PM 33.3028 -87.3644 232° Southwest 445 512 36,000  Level Atlanta Center
09:29PM 33.2328 -87.4783 234° Southwest 445 512 36,000  Level Atlanta Center
09:31PM 33.1144 -87.6661 233° Southwest 443 510 36,000  Level Memphis Center
09:32PM 33.0417 -87.7775 232° Southwest 438 504 36,000  Level Memphis Center
09:33PM 32.9708 -87.8886 233° Southwest 438 504 36,000  Level Memphis Center
09:34PM 32.9042 -87.9992 234° Southwest 432 497 36,000  Level Memphis Center
09:35PM 32.8311 -88.1125 233° Southwest 432 497 36,000  Level Memphis Center
09:36PM 32.7600 -88.2253 233° Southwest 432 497 36,000  Level Memphis Center
09:37PM 32.6867 -88.3333 231° Southwest 432 497 36,000  Level Memphis Center
09:38PM 32.6175 -88.4433 233° Southwest 427 491 36,000  Level Memphis Center
09:39PM 32.5419 -88.5533 231° Southwest 427 491 36,000  Level Memphis Center
09:40PM 32.4744 -88.6606 233° Southwest 427 491 36,000  Level Memphis Center
09:41PM 32.4008 -88.7678 231° Southwest 422 486 36,000 -420 Level Memphis Center
09:42PM 32.3225 -88.8603 225° Southwest 422 486 35,200 -900 Descending Memphis Center
09:43PM 32.2381 -88.9428 220° Southwest 408 470 34,200 -1,020 Descending Memphis Center
09:44PM 32.1533 -89.0275 220° Southwest 408 470 33,200 -1,020 Descending Memphis Center
09:45PM 32.0644 -89.1097 218° Southwest 402 463 32,200 -600 Descending Memphis Center
09:46PM 31.9733 -89.1967 219° Southwest 407 468 32,000 -120 Descending Memphis Center
09:47PM 31.8864 -89.2783 219° Southwest 407 468 32,000 -120 Level Memphis Center
09:48PM 31.7975 -89.3650 220° Southwest 414 476 31,800 -1,200 Descending Memphis Center
09:49PM 31.7414 -89.4192 219° Southwest 412 474 30,000 -2,220 Descending Houston Center
09:50PM 31.6494 -89.5075 219° Southwest 425 489 28,000 -1,020 Descending Houston Center
09:51PM 31.5472 -89.6047 219° Southwest 426 490 28,000 -240 Level Houston Center
09:52PM 31.4544 -89.6939 219° Southwest 432 497 27,600 -720 Descending Houston Center
09:53PM 31.3633 -89.7806 219° Southwest 427 491 26,600 -1,020 Descending Houston Center
09:54PM 31.2717 -89.8661 219° Southwest 422 486 25,600 -1,020 Descending Houston Center
09:55PM 31.1808 -89.9531 219° Southwest 423 487 24,600 -1,500 Descending Houston Center
09:56PM 31.0911 -90.0364 219° Southwest 418 481 22,600 -2,280 Descending Houston Center
09:56PM 31.0261 -90.0853 213° Southwest 390 449 21,000 -2,280 Descending Houston Center
09:57PM 30.9964 -90.0947 195° South 398 458 20,300 -1,980 Descending Houston Center
09:58PM 30.8917 -90.1194 191° South 387 445 18,200 -2,100 Descending Houston Center
09:59PM 30.7892 -90.1433 191° South 379 436 16,100 -2,280 Descending Houston Center
09:59PM 30.7128 -90.1564 188° South 363 418 14,600 -2,460 Descending Houston Center
10:00PM 30.6722 -90.1525 175° South 354 407 13,600 -2,100 Descending Houston Center
10:00PM 30.6164 -90.1508 179° South 341 392 12,500 -1,980 Descending Houston Center
10:01PM 30.5792 -90.1503 179° South 339 390 11,600 -1,800 Descending Houston Center
10:01PM 30.5286 -90.1494 179° South 320 368 10,700 -1,500 Descending Houston Center
10:02PM 30.4936 -90.1464 176° South 318 366 10,100 -1,500 Descending Houston Center
10:02PM 30.4469 -90.1433 177° South 286 329 9,200 -1,680 Descending Houston Center
10:03PM 30.4164 -90.1403 175° South 291 335 8,400 -1,920 Descending Houston Center
10:03PM 30.3694 -90.1392 179° South 273 314 7,300 -1,980 Descending Houston Center
10:04PM 30.3411 -90.1411 183° South 277 319 6,400 -2,340 Descending Houston Center
10:04PM 30.2947 -90.1544 194° South 279 321 5,000 -2,220 Descending Houston Center
10:05PM 30.2658 -90.1628 194° South 282 325 4,200 -2,100 Descending Houston Center
10:05PM 30.2078 -90.1797 194° South 276 318 2,700 -1,980 Descending Houston Center
10:06PM 30.1931 -90.1856 199° South 278 320 2,200 -780 Descending Houston Center
10:06PM 30.1458 -90.2014 196° South 256 295 2,000 -240 Descending Houston Center
10:07PM 30.1292 -90.2064 195° South 254 292 2,000  Level Houston Center